Flight Track Log - Related Links

Times and Time Zones

All times are in EDT time to prevent confusion due to time zone crossing. See the EGF4393 flight status page for this flight to view local times or setup timezone preferences in your user account.

Time Position Orientation Groundspeed Altitude Reporting Facility
EDT Latitude Longitude Course Direction KTS MPH feet Rate Location/Type
Wed 03:44:10 PM 41.9333 -87.9167 346° North 167 192 2,300  Level Chicago TRACON
Wed 03:45:10 PM 41.9000 -87.9000 160° South 230 265 4,600 2,380 Climbing Chicago TRACON
Wed 03:46:11 PM 41.9500 -87.8500 37° Northeast 283 326 7,100 2,430 Climbing Chicago TRACON
Wed 03:47:00 PM 42.3577 -88.0205 340° North  Level FlightAware Approximate
Wed 03:47:11 PM 42.0333 -87.8500 360° North 336 387 9,500  Level Chicago TRACON
Wed 03:48:00 PM 42.4541 -88.0575 352° North  Level FlightAware Approximate
Wed 03:48:21 PM 42.1383 -87.8492 360° North 333 383 11,600  Level Chicago Center
Wed 03:49:00 PM 42.5494 -88.0942 346° North  Level FlightAware Approximate
Wed 03:49:23 PM 42.2419 -87.8478 North 370 426 12,800  Level Chicago Center
Wed 03:50:25 PM 42.3542 -87.8800 348° North 404 465 13,900 1,065 Climbing Chicago Center
Wed 03:51:27 PM 42.4544 -87.9528 332° Northwest 409 471 15,000 1,355 Climbing Chicago Center
Wed 03:52:29 PM 42.5736 -88.0375 332° Northwest 412 474 16,700 1,548 Climbing Chicago Center
Wed 03:53:31 PM 42.6744 -88.1083 333° Northwest 408 470 18,200 1,548 Climbing Chicago Center
Wed 03:54:33 PM 42.7750 -88.1814 332° Northwest 408 470 19,900 1,645 Climbing Chicago Center
Wed 03:55:35 PM 42.8758 -88.2528 333° Northwest 408 470 21,600 1,016 Climbing Chicago Center
Wed 03:56:37 PM 42.9792 -88.3275 332° Northwest 417 480 22,000 192 Climbing Chicago Center
Wed 03:57:40 PM 43.1100 -88.4211 332° Northwest 450 518 22,000  Level Chicago Center
Wed 03:58:42 PM 43.2206 -88.5011 332° Northwest 448 516 22,000  Level Chicago Center
Wed 03:59:44 PM 43.3306 -88.5825 332° Northwest 443 510 22,000 -242 Level Chicago Center
Wed 04:00:46 PM 43.4422 -88.6644 332° Northwest 443 510 21,500 -823 Descending Chicago Center
Wed 04:01:48 PM 43.5500 -88.7433 332° Northwest 434 499 20,300 -726 Descending Chicago Center
Wed 04:02:50 PM 43.6567 -88.8211 332° Northwest 431 496 20,000 -424 Descending Chicago Center
Wed 04:03:27 PM 43.7281 -88.8728 332° Northwest 432 497 19,600 -1,065 Descending Minneapolis Center
Wed 04:03:52 PM 43.7622 -88.8992 331° Northwest 429 494 18,900 -1,935 Descending Chicago Center
Wed 04:04:29 PM 43.8328 -88.9494 333° Northwest 427 491 17,600 -2,061 Descending Minneapolis Center
Wed 04:05:31 PM 43.9319 -89.0247 331° Northwest 412 474 15,500 -1,790 Descending Minneapolis Center
Wed 04:06:33 PM 44.0428 -89.1100 331° Northwest 407 468 13,900 -780 Descending Minneapolis Center
Wed 04:07:34 PM 44.1400 -89.1817 332° Northwest 407 468 13,900  Level Minneapolis Center
Wed 04:08:36 PM 44.2356 -89.2539 332° Northwest 377 434 13,900 -484 Level Minneapolis Center
Wed 04:09:38 PM 44.3261 -89.3239 331° Northwest 360 414 12,900 -1,191 Descending Minneapolis Center
Wed 04:10:52 PM 44.4039 -89.3917 328° Northwest 326 375 11,200 -882 Descending Minneapolis Center
Wed 04:11:54 PM 44.5072 -89.4708 331° Northwest 366 421 10,900 -1,355 Descending Minneapolis Center
Wed 04:12:56 PM 44.5867 -89.5289 333° Northwest 304 350 8,400 -2,903 Descending Minneapolis Center
Wed 04:13:58 PM 44.6589 -89.5836 332° Northwest 285 328 4,900 -3,387 Descending Minneapolis Center

Login

Don't have an account? Register now (free) for customized features, flight alerts, and more!